Time;durP1;ratioP1;P1;durP2;ratioP2;P2;SDS_P1;SDS_P2;PMS_P1;PMS_P2;Temp;Humidity;BMP_temperature;BMP_pressure;BME280_temperature;BME280_humidity;BME280_pressure;Samples;Min_cycle;Max_cycle;Signal;HPM_P1;HPM_P2
2022/06/28 00:00:23;;;;;;;1.60;1.05;;;18.10;99.90;;;;;;5102185;27;45436;-72
2022/06/28 00:02:50;;;;;;;1.98;1.20;;;18.10;99.90;;;;;;5099817;27;45385;-71
2022/06/28 00:05:17;;;;;;;1.75;1.10;;;18.00;99.90;;;;;;5102358;27;45275;-72
2022/06/28 00:07:44;;;;;;;6.28;1.17;;;18.10;99.90;;;;;;5100130;27;47862;-71
2022/06/28 00:10:14;;;;;;;6.75;1.40;;;18.10;99.90;;;;;;5098075;27;45487;-71
2022/06/28 00:12:41;;;;;;;2.42;1.20;;;18.10;99.90;;;;;;5102651;27;45358;-71
2022/06/28 00:17:58;;;;;;;5.78;1.27;;;18.10;99.90;;;;;;5098382;27;45438;-70
2022/06/28 00:20:25;;;;;;;4.03;1.08;;;18.10;99.90;;;;;;5100464;27;45691;-71
2022/06/28 00:22:51;;;;;;;4.25;1.17;;;18.10;99.90;;;;;;5103173;27;45329;-71
2022/06/28 00:25:18;;;;;;;3.22;1.05;;;18.00;99.90;;;;;;5103203;27;45575;-71
2022/06/28 00:27:45;;;;;;;2.28;1.10;;;17.90;99.90;;;;;;5097618;27;45521;-72
2022/06/28 00:30:14;;;;;;;2.17;1.20;;;17.90;99.90;;;;;;5094774;27;45535;-71
2022/06/28 00:32:41;;;;;;;3.45;1.15;;;18.00;99.90;;;;;;5100782;27;45372;-71
2022/06/28 00:35:08;;;;;;;4.00;1.58;;;17.90;99.90;;;;;;5099965;27;45408;-71
2022/06/28 00:37:35;;;;;;;2.72;1.08;;;17.90;99.90;;;;;;5100749;27;47118;-70
2022/06/28 00:40:02;;;;;;;2.58;1.20;;;17.90;99.90;;;;;;5101803;27;45468;-71
2022/06/28 00:42:29;;;;;;;3.67;1.20;;;17.90;99.90;;;;;;5102702;27;45258;-70
2022/06/28 00:44:58;;;;;;;5.22;1.40;;;17.90;99.90;;;;;;5102511;27;45539;-71
2022/06/28 00:47:28;;;;;;;3.63;1.30;;;17.90;99.90;;;;;;5103138;27;46736;-71
2022/06/28 00:49:58;;;;;;;2.03;1.48;;;17.90;99.90;;;;;;5101284;27;45372;-71
2022/06/28 00:52:25;;;;;;;5.32;1.33;;;17.90;99.90;;;;;;5097616;27;45324;-71
2022/06/28 00:54:52;;;;;;;5.35;1.35;;;17.90;99.90;;;;;;5102090;27;45432;-71
2022/06/28 00:57:19;;;;;;;2.55;1.25;;;17.80;99.90;;;;;;5101425;27;45486;-71
2022/06/28 00:59:46;;;;;;;4.47;1.60;;;17.90;99.90;;;;;;5097753;27;45320;-71
2022/06/28 01:02:13;;;;;;;8.68;2.20;;;17.90;99.90;;;;;;5101339;27;45252;-70
2022/06/28 01:04:41;;;;;;;3.38;1.35;;;17.90;99.90;;;;;;5101510;27;45412;-72
2022/06/28 01:07:08;;;;;;;4.28;1.33;;;18.00;99.90;;;;;;5099702;27;45402;-70
2022/06/28 01:09:35;;;;;;;2.67;1.42;;;17.90;99.90;;;;;;5100190;27;45800;-71
2022/06/28 01:12:02;;;;;;;4.60;1.40;;;17.90;99.90;;;;;;5101012;27;45380;-71
2022/06/28 01:14:29;;;;;;;1.90;1.13;;;17.90;99.90;;;;;;5100089;27;45277;-70
2022/06/28 01:16:56;;;;;;;1.90;1.20;;;17.90;99.90;;;;;;5100994;27;48480;-71
2022/06/28 01:19:23;;;;;;;6.07;1.70;;;17.80;99.90;;;;;;5099893;27;45526;-71
2022/06/28 01:21:51;;;;;;;3.33;1.63;;;17.70;99.90;;;;;;5101236;27;45330;-71
2022/06/28 01:24:20;;;;;;;3.67;1.25;;;17.70;99.90;;;;;;5102096;27;45406;-71
2022/06/28 01:26:47;;;;;;;7.13;1.23;;;17.70;99.90;;;;;;5101478;27;46634;-71
2022/06/28 01:29:14;;;;;;;5.70;1.20;;;17.60;99.90;;;;;;5094410;27;45447;-71
2022/06/28 01:31:41;;;;;;;3.55;1.60;;;17.60;99.90;;;;;;5101038;27;45486;-71
2022/06/28 01:34:09;;;;;;;7.97;1.55;;;17.60;99.90;;;;;;5096929;27;45427;-72
2022/06/28 01:36:36;;;;;;;5.63;1.48;;;17.60;99.90;;;;;;5096657;27;46079;-71
2022/06/28 01:39:04;;;;;;;2.38;1.23;;;17.60;99.90;;;;;;5093879;27;45616;-71
2022/06/28 01:41:36;;;;;;;4.00;1.35;;;17.60;99.90;;;;;;5094498;27;45437;-72
2022/06/28 01:44:05;;;;;;;4.57;1.70;;;17.60;99.90;;;;;;5099317;27;45763;-71
2022/06/28 01:46:33;;;;;;;3.55;1.50;;;17.60;99.90;;;;;;5100489;27;46418;-70
2022/06/28 01:49:00;;;;;;;3.55;1.17;;;17.60;99.90;;;;;;5097449;27;46266;-70
2022/06/28 01:51:27;;;;;;;3.05;1.25;;;17.60;99.90;;;;;;5100252;27;45580;-71
2022/06/28 01:53:54;;;;;;;2.97;1.05;;;17.50;99.90;;;;;;5100666;27;45429;-70
2022/06/28 01:56:21;;;;;;;2.33;1.10;;;17.50;99.90;;;;;;5099388;27;47541;-71
2022/06/28 01:58:49;;;;;;;2.88;1.45;;;17.40;99.90;;;;;;5099949;27;45240;-71
2022/06/28 02:01:16;;;;;;;2.65;1.20;;;17.40;99.90;;;;;;5096520;27;45457;-71
2022/06/28 02:03:43;;;;;;;6.18;1.70;;;17.30;99.90;;;;;;5100031;27;45553;-71
2022/06/28 02:06:10;;;;;;;4.25;1.33;;;17.30;99.90;;;;;;5099006;27;47439;-71
2022/06/28 02:08:37;;;;;;;2.72;1.40;;;17.40;99.90;;;;;;5095644;27;45204;-71
2022/06/28 02:11:05;;;;;;;2.95;1.23;;;17.40;99.90;;;;;;5097172;27;45339;-71
2022/06/28 02:13:33;;;;;;;9.60;1.40;;;17.40;99.90;;;;;;5097030;27;45396;-71
2022/06/28 02:16:02;;;;;;;2.42;1.20;;;17.40;99.90;;;;;;5105769;27;45393;-71
2022/06/28 02:18:30;;;;;;;7.95;1.75;;;17.50;99.90;;;;;;5096985;27;45452;-71
2022/06/28 02:20:57;;;;;;;8.27;1.50;;;17.50;99.90;;;;;;5095951;27;45410;-71
2022/06/28 02:23:24;;;;;;;5.68;1.50;;;17.50;99.90;;;;;;5097369;27;45691;-71
2022/06/28 02:25:51;;;;;;;5.18;1.50;;;17.50;99.90;;;;;;5100208;27;46575;-71
2022/06/28 02:28:18;;;;;;;3.85;1.40;;;17.60;99.90;;;;;;5100366;27;45469;-72
2022/06/28 02:30:45;;;;;;;3.65;1.30;;;17.60;99.90;;;;;;5098064;27;45479;-71
2022/06/28 02:33:13;;;;;;;4.60;1.58;;;17.60;99.90;;;;;;5098238;27;45559;-70
2022/06/28 02:41:08;;;;;;;4.45;1.90;;;17.50;99.90;;;;;;5101731;27;45520;-71
2022/06/28 02:43:35;;;;;;;4.80;1.30;;;17.50;99.90;;;;;;5099723;27;45429;-70
2022/06/28 02:46:02;;;;;;;1.67;1.20;;;17.40;99.90;;;;;;5100895;27;47529;-71
2022/06/28 02:48:30;;;;;;;6.72;1.90;;;17.40;99.90;;;;;;5101627;27;45353;-71
2022/06/28 02:50:57;;;;;;;11.18;1.83;;;17.30;99.90;;;;;;5098408;27;45418;-70
2022/06/28 02:53:24;;;;;;;9.40;1.70;;;17.20;99.90;;;;;;5096087;27;45304;-70
2022/06/28 02:55:51;;;;;;;5.13;1.50;;;17.20;99.90;;;;;;5100880;27;46409;-71
2022/06/28 02:58:17;;;;;;;5.32;1.55;;;17.20;99.90;;;;;;5099798;27;45746;-70
2022/06/28 03:00:44;;;;;;;5.43;1.30;;;17.30;99.90;;;;;;5100359;27;45287;-71
2022/06/28 03:03:11;;;;;;;5.05;1.48;;;17.30;99.90;;;;;;5098279;27;45350;-71
2022/06/28 03:05:40;;;;;;;4.10;1.40;;;17.40;99.90;;;;;;5099320;27;45338;-71
2022/06/28 03:08:06;;;;;;;4.18;1.63;;;17.30;99.90;;;;;;5094824;27;45291;-71
2022/06/28 03:10:33;;;;;;;5.82;1.70;;;17.30;99.90;;;;;;5098308;27;45415;-71
2022/06/28 03:13:00;;;;;;;4.90;1.73;;;17.20;99.90;;;;;;5098870;27;45381;-71
2022/06/28 03:15:27;;;;;;;4.18;1.40;;;17.10;99.90;;;;;;5099293;27;46075;-70
2022/06/28 03:17:54;;;;;;;6.18;1.60;;;17.00;99.90;;;;;;5101298;27;45737;-71
2022/06/28 03:20:21;;;;;;;4.35;1.60;;;16.90;99.90;;;;;;5098249;27;45642;-71
2022/06/28 03:22:49;;;;;;;5.20;1.25;;;16.90;99.90;;;;;;5101064;27;45632;-71
2022/06/28 03:25:16;;;;;;;6.15;1.25;;;16.90;99.90;;;;;;5098039;27;45395;-70
2022/06/28 03:27:43;;;;;;;7.15;1.70;;;16.80;99.90;;;;;;5100971;27;45312;-70
2022/06/28 03:30:10;;;;;;;7.93;1.65;;;16.80;99.90;;;;;;5101713;27;45436;-71
2022/06/28 03:32:37;;;;;;;7.10;1.40;;;16.70;99.90;;;;;;5103422;27;45472;-70
2022/06/28 03:35:04;;;;;;;6.70;1.77;;;16.70;99.90;;;;;;5095141;27;46603;-71
2022/06/28 03:37:31;;;;;;;7.32;1.40;;;16.60;99.90;;;;;;5101096;27;45362;-71
2022/06/28 03:39:59;;;;;;;7.63;1.80;;;16.50;99.90;;;;;;5098718;27;45519;-71
2022/06/28 03:42:26;;;;;;;3.50;1.40;;;16.50;99.90;;;;;;5099396;27;45509;-71
2022/06/28 03:44:53;;;;;;;7.55;1.70;;;16.60;99.90;;;;;;5097289;27;45389;-71
2022/06/28 03:47:20;;;;;;;11.90;1.98;;;16.60;99.90;;;;;;5099723;27;45249;-71
2022/06/28 03:49:47;;;;;;;5.00;1.67;;;16.60;99.90;;;;;;5099089;27;45287;-70
2022/06/28 03:52:14;;;;;;;5.22;1.20;;;16.60;99.90;;;;;;5101885;27;45376;-71
2022/06/28 03:54:41;;;;;;;4.32;1.45;;;16.60;99.90;;;;;;5099530;27;46588;-71
2022/06/28 03:57:09;;;;;;;7.55;1.60;;;16.70;99.90;;;;;;5101458;27;45341;-71
2022/06/28 03:59:36;;;;;;;4.70;1.30;;;16.80;99.90;;;;;;5098150;27;45301;-70
2022/06/28 04:02:04;;;;;;;6.20;1.40;;;16.80;99.90;;;;;;5099673;27;45544;-71
2022/06/28 04:04:31;;;;;;;8.02;1.52;;;16.90;99.90;;;;;;5100980;27;46099;-71
2022/06/28 04:06:57;;;;;;;4.70;1.17;;;16.90;99.90;;;;;;5099144;27;45497;-71
2022/06/28 04:09:24;;;;;;;5.68;1.40;;;16.90;99.90;;;;;;5098127;27;45396;-71
2022/06/28 04:11:51;;;;;;;7.70;1.60;;;16.90;99.90;;;;;;5097794;27;45415;-71
2022/06/28 04:14:19;;;;;;;4.45;1.50;;;16.90;99.90;;;;;;5099098;27;45555;-71
2022/06/28 04:16:45;;;;;;;3.33;1.60;;;16.90;99.90;;;;;;5098132;27;45732;-72
2022/06/28 04:19:12;;;;;;;2.83;1.55;;;16.90;99.90;;;;;;5095770;27;45314;-70
2022/06/28 04:21:39;;;;;;;3.30;1.08;;;16.90;99.90;;;;;;5097660;27;45422;-70
2022/06/28 04:24:06;;;;;;;4.13;1.58;;;17.00;99.90;;;;;;5096026;27;45629;-71
2022/06/28 04:26:33;;;;;;;7.65;1.70;;;17.00;99.90;;;;;;5100098;27;46681;-71
2022/06/28 04:29:00;;;;;;;4.25;1.38;;;17.10;99.90;;;;;;5097832;27;45500;-71
2022/06/28 04:31:29;;;;;;;6.22;1.50;;;17.10;99.90;;;;;;5099574;27;45807;-71
2022/06/28 04:33:55;;;;;;;7.97;1.50;;;17.20;99.90;;;;;;5103263;27;45213;-70
2022/06/28 04:36:23;;;;;;;4.35;1.50;;;17.20;99.90;;;;;;5098474;27;45256;-70
2022/06/28 04:38:49;;;;;;;3.72;1.58;;;17.20;99.90;;;;;;5094093;27;45480;-71
2022/06/28 04:41:17;;;;;;;7.35;1.48;;;17.20;99.90;;;;;;5095930;27;45434;-71
2022/06/28 04:43:44;;;;;;;3.28;1.58;;;17.30;99.90;;;;;;5098401;27;45459;-70
2022/06/28 04:46:11;;;;;;;4.38;1.52;;;17.30;99.90;;;;;;5100851;27;45626;-71
2022/06/28 04:48:39;;;;;;;3.58;1.35;;;17.30;99.90;;;;;;5099333;27;45428;-71
2022/06/28 04:51:11;;;;;;;3.78;1.30;;;17.30;99.90;;;;;;5096405;27;45509;-70
2022/06/28 04:53:39;;;;;;;2.75;1.40;;;17.30;99.90;;;;;;5095253;27;48437;-71
2022/06/28 04:56:06;;;;;;;7.72;1.40;;;17.30;99.90;;;;;;5096419;27;45451;-70
2022/06/28 04:58:33;;;;;;;4.57;1.50;;;17.30;99.90;;;;;;5099749;27;45290;-70
2022/06/28 05:01:00;;;;;;;7.90;1.67;;;17.30;99.90;;;;;;5096430;27;45259;-71
2022/06/28 05:03:26;;;;;;;6.80;1.77;;;17.30;99.90;;;;;;5095037;27;46315;-71
2022/06/28 05:05:54;;;;;;;4.38;1.70;;;17.30;99.90;;;;;;5102015;27;45418;-71
2022/06/28 05:08:21;;;;;;;7.55;1.40;;;17.30;99.90;;;;;;5100982;27;45489;-70
2022/06/28 05:10:48;;;;;;;8.30;1.65;;;17.40;99.90;;;;;;5099265;27;45520;-71
2022/06/28 05:13:15;;;;;;;4.95;1.38;;;17.40;99.90;;;;;;5093987;27;48754;-71
2022/06/28 05:15:42;;;;;;;6.82;1.45;;;17.50;99.90;;;;;;5096905;27;45409;-71
2022/06/28 05:18:09;;;;;;;2.40;1.38;;;17.50;99.90;;;;;;5101391;27;45409;-71
2022/06/28 05:20:36;;;;;;;3.50;1.50;;;17.50;99.90;;;;;;5100525;27;45562;-70
2022/06/28 05:23:04;;;;;;;5.50;1.50;;;17.50;99.90;;;;;;5098683;27;47517;-71
2022/06/28 05:25:31;;;;;;;5.22;1.90;;;17.50;99.90;;;;;;5099748;27;45410;-71
2022/06/28 05:27:58;;;;;;;5.30;1.60;;;17.50;99.90;;;;;;5099685;27;45372;-71
2022/06/28 05:30:24;;;;;;;7.35;1.85;;;17.50;99.90;;;;;;5098684;27;45453;-71
2022/06/28 05:32:51;;;;;;;3.83;1.55;;;17.50;99.90;;;;;;5098888;27;47178;-71
2022/06/28 05:35:18;;;;;;;5.95;1.63;;;17.60;99.90;;;;;;5100443;27;45433;-70
2022/06/28 05:37:45;;;;;;;2.35;1.42;;;17.70;99.90;;;;;;5101597;27;45294;-72
2022/06/28 05:40:13;;;;;;;6.35;1.40;;;17.70;99.90;;;;;;5098324;27;45548;-71
2022/06/28 05:42:40;;;;;;;3.92;1.00;;;17.90;99.90;;;;;;5096048;27;47453;-71
2022/06/28 05:45:08;;;;;;;3.75;1.45;;;18.00;99.90;;;;;;5096831;27;46029;-70
2022/06/28 05:47:34;;;;;;;10.13;1.80;;;18.10;99.90;;;;;;5096502;27;45429;-72
2022/06/28 05:50:01;;;;;;;2.45;1.30;;;18.10;99.90;;;;;;5099845;27;45911;-70
2022/06/28 05:52:28;;;;;;;6.13;1.85;;;18.20;99.90;;;;;;5101355;27;45347;-70
2022/06/28 05:54:55;;;;;;;3.60;1.27;;;18.20;99.90;;;;;;5100714;27;45420;-70
2022/06/28 05:57:23;;;;;;;5.32;1.50;;;18.20;99.90;;;;;;5100023;27;45412;-71
2022/06/28 05:59:50;;;;;;;4.57;1.35;;;18.20;99.90;;;;;;5097451;27;45356;-71
2022/06/28 06:02:17;;;;;;;2.38;1.35;;;18.30;99.90;;;;;;5099694;27;47043;-71
2022/06/28 06:04:43;;;;;;;3.35;1.27;;;18.30;99.90;;;;;;5103397;27;45278;-71
2022/06/28 06:07:10;;;;;;;5.05;1.13;;;18.40;99.90;;;;;;5100568;27;45446;-69
2022/06/28 06:09:41;;;;;;;4.57;1.17;;;18.40;99.90;;;;;;5098641;27;45376;-72
2022/06/28 06:12:08;;;;;;;4.93;1.10;;;18.40;99.90;;;;;;5100388;27;45470;-71
2022/06/28 06:14:36;;;;;;;4.10;1.40;;;18.50;99.90;;;;;;5100734;27;45395;-71
2022/06/28 06:17:03;;;;;;;7.97;1.40;;;18.50;99.90;;;;;;5104201;27;45260;-71
2022/06/28 06:19:30;;;;;;;5.53;1.25;;;16.80;99.90;;;;;;5101999;27;45518;-70
2022/06/28 06:21:56;;;;;;;3.85;1.20;;;16.10;99.90;;;;;;5105604;27;46621;-71
2022/06/28 06:24:23;;;;;;;8.73;1.50;;;15.90;99.90;;;;;;5105936;27;45378;-70
2022/06/28 06:26:50;;;;;;;5.00;1.40;;;16.00;99.90;;;;;;5106560;27;45262;-70
2022/06/28 06:29:17;;;;;;;8.75;1.52;;;15.90;99.90;;;;;;5101236;27;45765;-70
2022/06/28 06:31:45;;;;;;;7.28;1.55;;;15.90;99.90;;;;;;5097700;27;46956;-70
2022/06/28 06:34:13;;;;;;;6.43;1.65;;;15.90;99.90;;;;;;5105338;27;45401;-70
2022/06/28 06:36:40;;;;;;;6.30;1.50;;;16.00;99.90;;;;;;5105082;27;45307;-71
2022/06/28 06:39:07;;;;;;;6.57;1.50;;;16.10;99.90;;;;;;5095276;27;45390;-70
2022/06/28 06:41:34;;;;;;;7.80;1.90;;;16.10;99.90;;;;;;5103693;27;46311;-71
2022/06/28 06:44:02;;;;;;;6.38;1.20;;;16.10;99.90;;;;;;5100277;27;45389;-70
2022/06/28 06:46:29;;;;;;;5.60;1.75;;;16.30;99.90;;;;;;5105378;27;45320;-71
2022/06/28 06:48:58;;;;;;;6.75;1.70;;;16.30;99.90;;;;;;5100756;27;45903;-70
2022/06/28 06:51:25;;;;;;;6.18;1.52;;;16.30;99.90;;;;;;5096522;27;45302;-71
2022/06/28 06:53:52;;;;;;;10.05;1.85;;;16.40;99.90;;;;;;5099699;27;45388;-70
2022/06/28 06:56:19;;;;;;;6.95;1.30;;;16.40;99.90;;;;;;5099799;27;45517;-71
2022/06/28 06:58:45;;;;;;;7.50;1.45;;;16.50;99.90;;;;;;5102210;27;45603;-70
2022/06/28 07:01:12;;;;;;;3.42;0.85;;;16.50;99.90;;;;;;5099183;27;47076;-71
2022/06/28 07:03:44;;;;;;;5.13;1.10;;;16.60;99.90;;;;;;5103713;27;46091;-71
2022/06/28 07:06:12;;;;;;;5.07;1.20;;;16.70;99.90;;;;;;5095496;27;45579;-71
2022/06/28 07:08:39;;;;;;;4.07;1.13;;;16.80;99.90;;;;;;5105361;27;45334;-70
2022/06/28 07:11:06;;;;;;;2.53;1.00;;;16.90;99.90;;;;;;5103686;27;46608;-71
2022/06/28 07:13:33;;;;;;;3.60;1.30;;;16.90;99.90;;;;;;5104375;27;45481;-71
2022/06/28 07:16:01;;;;;;;6.70;1.20;;;16.90;99.90;;;;;;5105402;27;45668;-70
2022/06/28 07:18:28;;;;;;;8.90;1.33;;;16.90;99.90;;;;;;5105197;27;45577;-71
2022/06/28 07:20:55;;;;;;;3.05;1.10;;;17.00;99.90;;;;;;5103392;27;47881;-70
2022/06/28 07:23:23;;;;;;;4.40;1.20;;;17.10;99.90;;;;;;5104413;27;45348;-71
2022/06/28 07:25:50;;;;;;;4.90;1.13;;;17.10;99.90;;;;;;5104392;27;45315;-71
2022/06/28 07:28:17;;;;;;;5.53;1.05;;;17.10;99.90;;;;;;5104806;27;45351;-71
2022/06/28 07:30:44;;;;;;;4.38;1.27;;;17.10;99.90;;;;;;5104860;27;47417;-71
2022/06/28 07:33:12;;;;;;;4.20;0.88;;;17.30;99.90;;;;;;5100866;27;45432;-70
2022/06/28 07:35:38;;;;;;;5.47;0.90;;;17.60;99.90;;;;;;5102524;27;45465;-71
2022/06/28 07:38:05;;;;;;;6.18;1.33;;;17.40;99.90;;;;;;5100807;27;45559;-71
2022/06/28 07:40:34;;;;;;;4.85;1.55;;;17.50;99.90;;;;;;5098078;27;45291;-71
2022/06/28 07:43:01;;;;;;;4.88;1.17;;;17.40;99.90;;;;;;5098882;27;45452;-71
2022/06/28 07:45:28;;;;;;;8.13;1.50;;;17.60;99.90;;;;;;5099050;27;45481;-71
2022/06/28 07:47:55;;;;;;;5.55;1.02;;;17.70;99.90;;;;;;5097695;27;45367;-70
2022/06/28 07:53:15;;;;;;;5.28;1.27;;;17.90;99.90;;;;;;5063881;27;45570;-70
2022/06/28 07:55:43;;;;;;;6.47;1.38;;;17.80;99.90;;;;;;5095318;27;45430;-71
2022/06/28 07:58:10;;;;;;;7.28;1.23;;;18.00;99.90;;;;;;5100486;27;45587;-71
2022/06/28 08:00:37;;;;;;;9.68;2.10;;;18.20;99.90;;;;;;5099585;27;47021;-71
2022/06/28 08:03:05;;;;;;;5.55;1.50;;;18.10;99.90;;;;;;5098946;27;45338;-71
2022/06/28 08:05:31;;;;;;;3.10;1.85;;;18.20;99.90;;;;;;5099108;27;45367;-71
2022/06/28 08:07:58;;;;;;;4.95;1.20;;;18.50;99.90;;;;;;5095798;27;45925;-71
2022/06/28 08:10:25;;;;;;;6.95;1.40;;;18.40;99.90;;;;;;5096836;27;46626;-71
2022/06/28 08:12:53;;;;;;;5.50;1.33;;;18.40;99.90;;;;;;5100221;27;45614;-71
2022/06/28 08:15:20;;;;;;;8.18;1.52;;;18.40;99.90;;;;;;5097193;27;45634;-70
2022/06/28 08:17:47;;;;;;;4.82;1.02;;;18.40;99.90;;;;;;5099937;27;45443;-71
2022/06/28 08:20:14;;;;;;;3.92;1.15;;;18.20;99.90;;;;;;5096757;27;46309;-71
2022/06/28 08:22:41;;;;;;;5.07;1.27;;;18.30;99.90;;;;;;5100535;27;45463;-71
2022/06/28 08:25:09;;;;;;;3.67;1.13;;;18.40;99.90;;;;;;5097467;27;45372;-71
2022/06/28 08:27:36;;;;;;;4.80;1.27;;;18.60;99.90;;;;;;5100207;27;45663;-71
2022/06/28 08:30:04;;;;;;;3.05;0.80;;;18.50;99.90;;;;;;5104336;27;45371;-71
2022/06/28 08:32:31;;;;;;;7.72;1.33;;;18.60;99.90;;;;;;5097076;27;45505;-71
2022/06/28 08:34:58;;;;;;;6.63;1.05;;;18.60;99.20;;;;;;5099128;27;45467;-71
2022/06/28 08:37:25;;;;;;;5.32;1.08;;;18.50;98.60;;;;;;5099615;27;45416;-71
2022/06/28 08:39:52;;;;;;;5.28;1.20;;;18.60;98.50;;;;;;5100402;27;46612;-71
2022/06/28 08:42:26;;;;;;;4.70;0.80;;;18.60;99.20;;;;;;5097202;27;46648;-71
2022/06/28 08:44:53;;;;;;;6.38;1.15;;;18.90;97.60;;;;;;5097731;27;45540;-72
2022/06/28 08:47:24;;;;;;;6.28;1.10;;;19.20;96.20;;;;;;5098524;27;45390;-71
2022/06/28 08:49:55;;;;;;;3.72;0.98;;;19.20;96.80;;;;;;5100693;27;46315;-72
2022/06/28 08:52:24;;;;;;;3.63;1.10;;;19.20;95.10;;;;;;5097647;27;45401;-71
2022/06/28 08:54:52;;;;;;;3.35;0.77;;;18.90;94.30;;;;;;5095520;27;45351;-71
2022/06/28 08:57:20;;;;;;;5.38;1.10;;;19.10;94.70;;;;;;5100889;27;45319;-72
2022/06/28 08:59:48;;;;;;;3.45;1.05;;;19.40;93.30;;;;;;5098076;27;47679;-72
2022/06/28 09:02:16;;;;;;;4.47;1.10;;;19.60;92.70;;;;;;5096046;27;45434;-72
2022/06/28 09:04:48;;;;;;;5.20;1.08;;;19.60;93.10;;;;;;5097810;27;45641;-71
2022/06/28 09:07:15;;;;;;;4.75;1.13;;;19.40;93.10;;;;;;5096707;27;45335;-71
2022/06/28 09:09:42;;;;;;;3.70;1.00;;;19.40;92.80;;;;;;5097577;27;48117;-71
2022/06/28 09:12:09;;;;;;;3.53;1.10;;;19.50;92.00;;;;;;5100845;27;45476;-71
2022/06/28 09:14:36;;;;;;;3.42;0.77;;;19.80;90.20;;;;;;5096454;27;45513;-70
2022/06/28 09:17:19;;;;;;;6.88;1.25;;;20.00;89.60;;;;;;5096176;27;45494;-70
2022/06/28 09:19:48;;;;;;;3.28;0.90;;;19.70;90.70;;;;;;5099242;27;45345;-70
2022/06/28 09:22:30;;;;;;;2.92;0.75;;;19.50;91.60;;;;;;5097768;27;45471;-71
2022/06/28 09:24:57;;;;;;;5.05;0.93;;;19.50;90.30;;;;;;5097335;27;45417;-71
2022/06/28 09:27:29;;;;;;;2.10;0.73;;;19.70;89.40;;;;;;5095686;27;45673;-71
2022/06/28 09:29:56;;;;;;;6.40;1.10;;;19.80;87.70;;;;;;5098655;27;45346;-70
2022/06/28 09:32:28;;;;;;;4.20;0.90;;;19.70;86.30;;;;;;5097497;27;45347;-70
2022/06/28 09:34:58;;;;;;;3.55;0.98;;;19.60;85.00;;;;;;5096010;27;45651;-70
2022/06/28 09:37:33;;;;;;;3.20;0.95;;;19.60;85.20;;;;;;5096606;27;45391;-71
2022/06/28 09:40:10;;;;;;;3.70;0.70;;;19.70;90.80;;;;;;5099905;27;47017;-71
2022/06/28 09:42:37;;;;;;;5.30;0.95;;;20.00;85.90;;;;;;5099271;27;45429;-71
2022/06/28 09:45:05;;;;;;;5.70;1.10;;;20.00;83.10;;;;;;5098344;27;45587;-72
2022/06/28 09:47:32;;;;;;;5.35;1.00;;;19.90;81.00;;;;;;5098069;27;45208;-70
2022/06/28 09:50:00;;;;;;;19.55;1.42;;;20.00;86.40;;;;;;5098426;27;45273;-71
2022/06/28 09:52:29;;;;;;;3.72;1.10;;;19.80;83.60;;;;;;5096095;27;45407;-71
2022/06/28 09:54:58;;;;;;;3.30;0.90;;;20.20;86.20;;;;;;5100377;27;45437;-71
2022/06/28 09:57:26;;;;;;;2.25;1.10;;;20.40;83.00;;;;;;5102798;27;45596;-71
2022/06/28 09:59:55;;;;;;;1.90;1.02;;;20.70;82.20;;;;;;5102678;27;47139;-70
2022/06/28 10:02:23;;;;;;;3.80;1.00;;;20.70;81.40;;;;;;5102747;27;45354;-70
2022/06/28 10:04:49;;;;;;;6.00;0.95;;;20.40;81.80;;;;;;5102801;27;45347;-70
2022/06/28 10:07:18;;;;;;;4.38;0.95;;;20.60;82.30;;;;;;5103269;27;45545;-72
2022/06/28 10:09:46;;;;;;;4.57;1.20;;;20.80;79.50;;;;;;5099233;27;46664;-71
2022/06/28 10:15:02;;;;;;;5.20;1.10;;;20.80;85.30;;;;;;5095117;27;45397;-70
2022/06/28 10:17:49;;;;;;;4.45;1.20;;;20.90;84.90;;;;;;5100546;27;45287;-72
2022/06/28 10:20:20;;;;;;;9.27;0.98;;;20.90;83.40;;;;;;5099036;27;46299;-70
2022/06/28 10:22:48;;;;;;;7.00;0.88;;;20.90;83.70;;;;;;5096960;27;45323;-71
2022/06/28 10:25:17;;;;;;;2.72;0.75;;;20.90;84.20;;;;;;5094602;27;45583;-71
2022/06/28 10:27:46;;;;;;;3.47;1.05;;;21.00;90.10;;;;;;5095511;27;45347;-70
2022/06/28 10:30:25;;;;;;;1.85;0.80;;;21.00;86.30;;;;;;5095641;27;46299;-72
2022/06/28 10:32:55;;;;;;;11.63;1.88;;;21.10;84.20;;;;;;5098929;27;45702;-71
2022/06/28 10:35:53;;;;;;;6.93;1.48;;;21.10;85.60;;;;;;5098191;27;45488;-71
2022/06/28 10:38:22;;;;;;;3.42;1.27;;;21.20;82.50;;;;;;5097654;27;45662;-71
2022/06/28 10:40:49;;;;;;;5.68;1.25;;;21.00;74.90;;;;;;5097910;27;45500;-71
2022/06/28 10:43:36;;;;;;;11.93;1.05;;;20.90;79.10;;;;;;5096952;27;45453;-71
2022/06/28 10:46:08;;;;;;;2.30;0.73;;;21.30;87.30;;;;;;5096984;27;45411;-71
2022/06/28 10:49:02;;;;;;;4.60;0.80;;;21.50;86.20;;;;;;5092576;27;45303;-71
2022/06/28 10:51:29;;;;;;;3.80;0.80;;;21.70;87.00;;;;;;5101205;27;45731;-70
2022/06/28 10:54:04;;;;;;;4.30;0.90;;;21.50;84.90;;;;;;5102603;27;45389;-70
2022/06/28 10:56:32;;;;;;;3.65;0.93;;;21.70;87.20;;;;;;5101757;27;45489;-70
2022/06/28 10:59:02;;;;;;;3.50;1.00;;;21.70;84.90;;;;;;5102095;27;45366;-71
2022/06/28 11:01:54;;;;;;;2.55;0.75;;;21.80;86.30;;;;;;5101527;27;46268;-72
2022/06/28 11:04:24;;;;;;;2.97;1.10;;;21.80;78.40;;;;;;5100025;27;45432;-71
2022/06/28 11:06:53;;;;;;;6.80;1.40;;;21.10;70.50;;;;;;5101527;27;45404;-71
2022/06/28 11:09:29;;;;;;;3.13;1.13;;;21.00;75.60;;;;;;5094581;27;45432;-71
2022/06/28 11:12:06;;;;;;;4.60;1.08;;;21.40;86.30;;;;;;5103203;27;47086;-70
2022/06/28 11:14:36;;;;;;;0.93;0.60;;;21.50;82.60;;;;;;5096253;27;45587;-70
2022/06/28 11:17:13;;;;;;;2.05;0.70;;;21.60;84.20;;;;;;5096148;27;45377;-72
2022/06/28 11:19:50;;;;;;;5.35;0.95;;;21.50;83.60;;;;;;5100997;27;45574;-71
2022/06/28 11:22:18;;;;;;;4.38;0.95;;;21.50;82.70;;;;;;5100348;27;46313;-72
2022/06/28 11:24:47;;;;;;;2.35;0.90;;;21.50;67.40;;;;;;5099086;27;45439;-71
2022/06/28 11:27:23;;;;;;;2.70;1.00;;;21.40;68.00;;;;;;5094664;27;45571;-71
2022/06/28 11:29:51;;;;;;;4.15;1.00;;;21.40;78.50;;;;;;5095789;27;45305;-71
2022/06/28 11:32:21;;;;;;;3.03;1.10;;;21.40;79.10;;;;;;5098797;27;47568;-71
2022/06/28 11:34:55;;;;;;;3.42;0.90;;;21.60;77.70;;;;;;5098094;27;45391;-71
2022/06/28 11:37:22;;;;;;;6.60;1.30;;;21.80;83.80;;;;;;5099352;27;45510;-70
2022/06/28 11:39:53;;;;;;;4.03;1.27;;;21.80;72.00;;;;;;5098946;27;45675;-71
2022/06/28 11:42:20;;;;;;;2.05;0.85;;;21.80;68.00;;;;;;5097820;27;45519;-72
2022/06/28 11:44:49;;;;;;;10.98;1.67;;;21.80;80.80;;;;;;5100475;27;46644;-71
2022/06/28 11:47:17;;;;;;;3.05;1.15;;;21.80;75.40;;;;;;5101745;27;45512;-71
2022/06/28 11:49:44;;;;;;;2.75;1.10;;;21.70;67.70;;;;;;5099197;27;45601;-72
2022/06/28 11:52:15;;;;;;;4.40;1.20;;;21.60;81.40;;;;;;5101466;27;45453;-72
2022/06/28 11:54:44;;;;;;;3.53;1.30;;;21.50;74.00;;;;;;5097485;27;46389;-72
2022/06/28 11:57:16;;;;;;;1.90;1.10;;;21.50;82.40;;;;;;5098621;27;45438;-71
2022/06/28 11:59:54;;;;;;;3.30;1.00;;;21.50;83.20;;;;;;5091213;27;45572;-71
2022/06/28 12:02:40;;;;;;;3.25;1.00;;;21.30;72.60;;;;;;5094894;27;47207;-71
2022/06/28 12:05:08;;;;;;;1.95;0.98;;;21.30;78.40;;;;;;5089466;27;45489;-71
2022/06/28 12:07:36;;;;;;;5.05;1.08;;;21.30;86.50;;;;;;5096853;27;45430;-72
2022/06/28 12:10:04;;;;;;;2.72;1.10;;;21.30;83.30;;;;;;5104135;27;45539;-72
2022/06/28 12:12:32;;;;;;;2.53;1.13;;;21.40;85.10;;;;;;5103344;27;45380;-71
2022/06/28 12:14:59;;;;;;;4.20;1.30;;;21.40;83.80;;;;;;5104111;27;45414;-71
2022/06/28 12:17:26;;;;;;;2.03;1.00;;;21.40;79.50;;;;;;5104959;27;45271;-71
2022/06/28 12:19:53;;;;;;;2.90;1.10;;;21.40;83.10;;;;;;5104541;27;45238;-72
2022/06/28 12:22:23;;;;;;;4.38;1.00;;;21.30;81.70;;;;;;5104718;27;47270;-73
2022/06/28 12:24:51;;;;;;;2.10;0.90;;;21.40;86.60;;;;;;5104485;27;45589;-72
2022/06/28 12:27:21;;;;;;;3.38;1.00;;;21.40;85.90;;;;;;5104493;27;45418;-71
2022/06/28 12:29:50;;;;;;;1.48;0.80;;;21.50;86.90;;;;;;5103892;27;45427;-71
2022/06/28 12:32:17;;;;;;;4.18;1.40;;;21.40;84.70;;;;;;5104680;27;46143;-71
2022/06/28 12:34:44;;;;;;;4.75;1.00;;;21.50;88.80;;;;;;5104856;27;45293;-72
2022/06/28 12:37:11;;;;;;;3.35;1.20;;;21.40;85.90;;;;;;5104814;27;45329;-72
2022/06/28 12:39:39;;;;;;;4.00;1.33;;;21.40;82.50;;;;;;5103543;27;45425;-72
2022/06/28 12:42:07;;;;;;;3.92;1.45;;;21.40;80.40;;;;;;5104631;27;45425;-71
2022/06/28 12:44:35;;;;;;;1.58;0.60;;;21.50;81.40;;;;;;5104214;27;45313;-71
2022/06/28 12:47:03;;;;;;;1.60;0.77;;;21.50;86.70;;;;;;5104331;27;45410;-71
2022/06/28 12:49:30;;;;;;;2.50;0.95;;;21.50;86.30;;;;;;5103781;27;45264;-71
2022/06/28 12:51:57;;;;;;;1.30;0.77;;;21.50;88.10;;;;;;5104086;27;45328;-72
2022/06/28 12:54:24;;;;;;;2.47;0.90;;;21.50;89.30;;;;;;5103787;27;47099;-72
2022/06/28 12:56:50;;;;;;;1.70;1.00;;;21.50;84.70;;;;;;5104000;27;45388;-71
2022/06/28 12:59:17;;;;;;;4.60;1.00;;;21.50;89.70;;;;;;5103685;27;45394;-71
2022/06/28 13:01:44;;;;;;;1.65;0.80;;;21.40;82.80;;;;;;5103725;27;48392;-71
2022/06/28 13:04:13;;;;;;;1.60;0.90;;;21.40;89.80;;;;;;5104026;27;45532;-71